Map

Track Data

SID SEASON NUMBER BASIN SUBBASIN NAME ISO_TIME NATURE LAT LON WMO_WIND WMO_PRES WMO_AGENCY TRACK_TYPE DIST2LAND LANDFALL IFLAG USA_AGENCY USA_ATCF_ID USA_LAT USA_LON USA_RECORD USA_STATUS USA_WIND USA_PRES USA_SSHS USA_R34_NE USA_R34_SE USA_R34_SW USA_R34_NW USA_R50_NE USA_R50_SE USA_R50_SW USA_R50_NW USA_R64_NE USA_R64_SE USA_R64_SW USA_R64_NW USA_POCI USA_ROCI USA_RMW USA_EYE TOKYO_LAT TOKYO_LON TOKYO_GRADE TOKYO_WIND TOKYO_PRES TOKYO_R50_DIR TOKYO_R50_LONG TOKYO_R50_SHORT TOKYO_R30_DIR TOKYO_R30_LONG TOKYO_R30_SHORT TOKYO_LAND CMA_LAT CMA_LON CMA_CAT CMA_WIND CMA_PRES HKO_LAT HKO_LON HKO_CAT HKO_WIND HKO_PRES NEWDELHI_LAT NEWDELHI_LON NEWDELHI_GRADE NEWDELHI_WIND NEWDELHI_PRES NEWDELHI_CI NEWDELHI_DP NEWDELHI_POCI REUNION_LAT REUNION_LON REUNION_TYPE REUNION_WIND REUNION_PRES REUNION_TNUM REUNION_CI REUNION_RMW REUNION_R34_NE REUNION_R34_SE REUNION_R34_SW REUNION_R34_NW REUNION_R50_NE REUNION_R50_SE REUNION_R50_SW REUNION_R50_NW REUNION_R64_NE REUNION_R64_SE REUNION_R64_SW REUNION_R64_NW BOM_LAT BOM_LON BOM_TYPE BOM_WIND BOM_PRES BOM_TNUM BOM_CI BOM_RMW BOM_R34_NE BOM_R34_SE BOM_R34_SW BOM_R34_NW BOM_R50_NE BOM_R50_SE BOM_R50_SW BOM_R50_NW BOM_R64_NE BOM_R64_SE BOM_R64_SW BOM_R64_NW BOM_ROCI BOM_POCI BOM_EYE BOM_POS_METHOD BOM_PRES_METHOD NADI_LAT NADI_LON NADI_CAT NADI_WIND NADI_PRES WELLINGTON_LAT WELLINGTON_LON WELLINGTON_WIND WELLINGTON_PRES DS824_LAT DS824_LON DS824_STAGE DS824_WIND DS824_PRES TD9636_LAT TD9636_LON TD9636_STAGE TD9636_WIND TD9636_PRES TD9635_LAT TD9635_LON TD9635_WIND TD9635_PRES TD9635_ROCI NEUMANN_LAT NEUMANN_LON NEUMANN_CLASS NEUMANN_WIND NEUMANN_PRES MLC_LAT MLC_LON MLC_CLASS MLC_WIND MLC_PRES USA_GUST BOM_GUST BOM_GUST_PER REUNION_GUST REUNION_GUST_PER USA_SEAHGT USA_SEARAD_NE USA_SEARAD_SE USA_SEARAD_SW USA_SEARAD_NW STORM_SPEED STORM_DIR
1965335S05087 1966 117 SI MM ALICE 1965-11-30 12:00:00 TS -5.40000 87.0000 main 1327 1327 O________OO___ jtwc_sh SH031966 -5.40000 87.0000 -1 -5.40000 87.0000 TC -5.40000 87.0000 4 4 226
1965335S05087 1966 117 SI MM ALICE 1965-11-30 15:00:00 TS -5.54070 86.8568 main 1342 1342 P________PP___ SH031966 -5.52750 86.8750 -1 -5.52750 86.8750 TC -5.56711 86.8203 4 5 225
1965335S05087 1966 117 SI MM ALICE 1965-11-30 18:00:00 TS -5.71912 86.6741 main 1374 1374 O________OP___ jtwc_sh SH031966 -5.70000 86.7000 -1 -5.70000 86.7000 TC -5.75736 86.6224 4 6 225
1965335S05087 1966 117 SI MM ALICE 1965-11-30 21:00:00 TS -5.96797 86.4211 main 1421 1421 P________PP___ SH031966 -5.95499 86.4374 -1 -5.95499 86.4374 TC -5.99394 86.3884 4 8 227
1965335S05087 1966 117 SI MM ALICE 1965-12-01 00:00:00 TS -6.26000 86.0867 main 1468 1468 O________OO_O_ jtwc_sh SH031966 -6.30000 86.1000 -1 -6.30000 86.1000 TC 65 -6.30000 86.1000 4 -6.30000 86.1000 TC 30 11 227
1965335S05087 1966 117 SI MM ALICE 1965-12-01 03:00:00 TS -6.69325 85.6517 main 1521 1517 P________PP_P_ SH031966 -6.71251 85.7150 -1 -6.71251 85.7150 TC 65 -6.69270 85.7461 4 -6.80763 85.6278 TC 32 13 223
1965335S05087 1966 117 SI MM ALICE 1965-12-01 06:00:00 TS -7.21102 85.1822 main 1554 1554 O________OP_O_ jtwc_sh SH031966 -7.20000 85.3000 -1 -7.20000 85.3000 TC 65 -7.16530 85.3448 4 -7.30000 85.2000 TC 35 14 220
1965335S05087 1966 117 SI MM ALICE 1965-12-01 09:00:00 TS -7.76818 84.7336 main 1601 1601 P________PP_P_ SH031966 -7.71248 84.8999 -1 -7.71248 84.8999 TC 65 -7.70521 84.9210 4 -7.77742 84.8423 TC 35 14 216
1965335S05087 1966 117 SI MM ALICE 1965-12-01 12:00:00 TS -8.36667 84.3333 main 1654 1654 O________OO_O_ jtwc_sh SH031966 -8.30000 84.5000 -1 -8.30000 84.5000 TC 65 -8.30000 84.5000 4 -8.30000 84.5000 TC 35 15 212
1965335S05087 1966 117 SI MM ALICE 1965-12-01 15:00:00 TS -9.02143 83.9471 main 1709 1709 P________PP_P_ SH031966 -8.98499 84.0925 -1 -8.98499 84.0925 TC 65 -8.96937 84.0819 4 -8.92002 84.1000 TC 35 15 209
1965335S05087 1966 117 SI MM ALICE 1965-12-01 18:00:00 TS -9.70201 83.5927 main 1779 1779 O________OP_O_ jtwc_sh SH031966 -9.70000 83.7000 -1 -9.70000 83.7000 TC 65 -9.68010 83.6760 4 -9.60000 83.7000 TC 35 15 206
1965335S05087 1966 117 SI MM ALICE 1965-12-01 21:00:00 TS -10.3870 83.2635 main 1850 1849 P________PP_P_ SH031966 -10.3875 83.3126 -1 -10.3875 83.3126 TC 65 -10.3758 83.3070 4 -10.3375 83.3126 TC 37 14 204
1965335S05087 1966 117 SI MM ALICE 1965-12-02 00:00:00 TS -11.0000 83.0000 main 1912 1912 O________OO_O_ jtwc_sh SH031966 -11.0000 83.0000 -1 -11.0000 83.0000 TC 65 -11.0000 83.0000 4 -11.0000 83.0000 TC 40 12 201
1965335S05087 1966 117 SI MM ALICE 1965-12-02 03:00:00 TS -11.4658 82.8328 main 1964 1964 P________PP_P_ SH031966 -11.4949 82.8198 -1 -11.4949 82.8198 TC 65 -11.4868 82.7885 4 -11.4449 82.8197 TC 45 9 198
1965335S05087 1966 117 SI MM ALICE 1965-12-02 06:00:00 TS -11.8440 82.7180 main 1996 1996 O________OP_O_ jtwc_sh SH031966 -11.9000 82.7000 -1 -11.9000 82.7000 TC 65 -11.8970 82.6389 4 -11.8000 82.7000 TC 50 8 198
1965335S05087 1966 117 SI MM ALICE 1965-12-02 09:00:00 TS -12.1948 82.5944 main 2040 2040 P________PP_P_ SH031966 -12.2650 82.5499 -1 -12.2650 82.5499 TC 65 -12.2587 82.5199 4 -12.2075 82.5500 TC 52 7 200
1965335S05087 1966 117 SI MM ALICE 1965-12-02 12:00:00 TS -12.5333 82.4667 main 2072 2072 O________OO_O_ jtwc_sh SH031966 -12.6000 82.4000 -1 -12.6000 82.4000 TC 65 -12.6000 82.4000 4 -12.6000 82.4000 TC 55 8 200
1965335S05087 1966 117 SI MM ALICE 1965-12-02 15:00:00 TS -12.9144 82.3231 main 2114 2114 P________PP_P_ SH031966 -12.9500 82.2574 -1 -12.9500 82.2574 TC 65 -12.9765 82.2361 4 -12.9575 82.2574 TC 57 8 201
1965335S05087 1966 117 SI MM ALICE 1965-12-02 18:00:00 TS -13.2946 82.1658 main 2158 2157 O________OP_O_ jtwc_sh SH031966 -13.3000 82.1000 -1 -13.3000 82.1000 TC 65 -13.3374 82.0649 4 -13.3000 82.1000 TC 60 8 204
1965335S05087 1966 117 SI MM ALICE 1965-12-02 21:00:00 TS -13.6612 81.9885 main 2201 2200 P________PP_P_ SH031966 -13.6575 81.9075 -1 -13.6575 81.9075 TC 65 -13.6796 81.8861 4 -13.6575 81.9075 TC 62 8 207
1965335S05087 1966 117 SI MM ALICE 1965-12-03 00:00:00 TS -14.0000 81.8000 main 2233 2233 O________OO_O_ jtwc_sh SH031966 -14.0000 81.7000 -1 -14.0000 81.7000 TC 65 -14.0000 81.7000 4 -14.0000 81.7000 TC 65 7 209
1965335S05087 1966 117 SI MM ALICE 1965-12-03 03:00:00 TS -14.3006 81.6177 main 2265 2265 P________PP_P_ SH031966 -14.3150 81.4999 -1 -14.3150 81.4999 TC 65 -14.3006 81.5111 4 -14.3150 81.4999 TC 67 7 212
1965335S05087 1966 117 SI MM ALICE 1965-12-03 06:00:00 TS -14.5708 81.4265 main 2298 2298 O________OP_O_ jtwc_sh SH031966 -14.6000 81.3000 -1 -14.6000 81.3000 TC 65 -14.5799 81.3147 4 -14.6000 81.3000 TC 70 7 216
1965335S05087 1966 117 SI MM ALICE 1965-12-03 09:00:00 TS -14.8235 81.2200 main 2319 2319 P________PP_P_ SH031966 -14.8575 81.0999 -1 -14.8575 81.0999 TC 65 -14.8443 81.1111 4 -14.8575 81.0999 TC 70 6 220
1965335S05087 1966 117 SI MM ALICE 1965-12-03 12:00:00 TS -15.0667 81.0000 main 2353 2352 O________OO_O_ jtwc_sh SH031966 -15.1000 80.9000 -1 -15.1000 80.9000 TC 65 -15.1000 80.9000 4 -15.1000 80.9000 TC 70 7 221
1965335S05087 1966 117 SI MM ALICE 1965-12-03 15:00:00 TS -15.3178 80.7754 main 2375 2375 P________PP_P_ SH031966 -15.3500 80.7074 -1 -15.3500 80.7074 TC 65 -15.3571 80.6941 4 -15.3500 80.7074 TC 70 7 222
1965335S05087 1966 117 SI MM ALICE 1965-12-03 18:00:00 TS -15.5679 80.5349 main 2408 2408 O________OP_O_ jtwc_sh SH031966 -15.6000 80.5000 -1 -15.6000 80.5000 TC 65 -15.6073 80.4796 4 -15.6000 80.5000 TC 70 7 224
1965335S05087 1966 117 SI MM ALICE 1965-12-03 21:00:00 TS -15.8173 80.2769 main 2429 2389 P________PP_P_ SH031966 -15.8500 80.2649 -1 -15.8500 80.2649 TC 65 -15.8539 80.2503 4 -15.8500 80.2649 TC 67 7 226
1965335S05087 1966 117 SI MM ALICE 1965-12-04 00:00:00 TS -16.0667 80.0000 main 2389 2353 O________OO_O_ jtwc_sh SH031966 -16.1000 80.0000 -1 -16.1000 80.0000 TC 65 -16.1000 80.0000 4 -16.1000 80.0000 TC 65 7 227
1965335S05087 1966 117 SI MM ALICE 1965-12-04 03:00:00 TS -16.3173 79.7126 main 2353 2313 P________PP_P_ SH031966 -16.3500 79.7075 -1 -16.3500 79.7075 TC 65 -16.3540 79.7296 4 -16.3500 79.7075 TC 65 8 228
1965335S05087 1966 117 SI MM ALICE 1965-12-04 06:00:00 TS -16.5678 79.4136 main 2313 2277 O________OP_O_ jtwc_sh SH031966 -16.6000 79.4000 -1 -16.6000 79.4000 TC 65 -16.6074 79.4373 4 -16.6000 79.4000 TC 65 8 229
1965335S05087 1966 117 SI MM ALICE 1965-12-04 09:00:00 TS -16.8177 79.1177 main 2277 2239 P________PP_P_ SH031966 -16.8499 79.1074 -1 -16.8499 79.1074 TC 65 -16.8571 79.1264 4 -16.8499 79.1074 TC 65 8 230
1965335S05087 1966 117 SI MM ALICE 1965-12-04 12:00:00 TS -17.0667 78.8000 main 2239 2203 O________OO_O_ jtwc_sh SH031966 -17.1000 78.8000 -1 -17.1000 78.8000 TC 65 -17.1000 78.8000 4 -17.1000 78.8000 TC 65 8 232
1965335S05087 1966 117 SI MM ALICE 1965-12-04 15:00:00 TS -17.3179 78.4445 main 2192 2157 P________PP_P_ SH031966 -17.3575 78.4575 -1 -17.3575 78.4575 TC 65 -17.3340 78.4613 4 -17.3575 78.4575 TC 62 9 235
1965335S05087 1966 117 SI MM ALICE 1965-12-04 18:00:00 TS -17.5603 78.0624 main 2154 2108 O________OP_O_ jtwc_sh SH031966 -17.6000 78.1000 -1 -17.6000 78.1000 TC 65 -17.5605 78.1132 4 -17.6000 78.1000 TC 60 9 238
1965335S05087 1966 117 SI MM ALICE 1965-12-04 21:00:00 TS -17.7856 77.6675 main 2108 2063 P________PP_P_ SH031966 -17.8101 77.7476 -1 -17.8101 77.7476 TC 65 -17.7817 77.7584 4 -17.8101 77.7476 TC 60 9 240
1965335S05087 1966 117 SI MM ALICE 1965-12-05 00:00:00 TS -18.0000 77.2667 main 2063 O________OO_O_ jtwc_sh SH031966 -18.0000 77.4000 -1 -18.0000 77.4000 TC 65 -18.0000 77.4000 4 -18.0000 77.4000 TC 60 9 241

About IBTrACS Database

This database is a web-friendly format of International Best Track Archive for Climate Stewardship (IBTrACS), a global best track data archive curated by NOAA dating back to 1842.

Updated: 2021-10-21